Terminal Aerodrome Forecast
Issued by NWS Albuquerque, NM

Home | Current Version | Previous Version | Text Only | Print | Product List | Glossary On
Versions: 1 2 3 4 5 6 7 8 9 10 11 12 13 14 15
000
FTUS45 KABQ 221100
TAFABQ
TAF
KABQ 221135Z 2212/2312 09010KT P6SM BKN100
     FM221400 12010KT P6SM BKN050
     FM221900 15010KT P6SM VCSH OVC050
     FM222100 18010KT P6SM VCTS BKN050CB
     FM222300 09010KT P6SM VCSH OVC050
     FM230300 12010KT P6SM VCFG SCT015 OVC040=

USA.gov is the U.S. government's official web portal to all federal, state and local government web resources and services.